sensor_id;sensor_type;location;lat;lon;timestamp;temperature;humidity
78731;SHT31;68055;51.978;5.658;2023-04-01T00:01:54;12.7;76.6
78731;SHT31;68055;51.978;5.658;2023-04-01T00:04:24;12.7;76.7
78731;SHT31;68055;51.978;5.658;2023-04-01T00:06:53;12.7;76.6
78731;SHT31;68055;51.978;5.658;2023-04-01T00:09:24;12.7;76.5
78731;SHT31;68055;51.978;5.658;2023-04-01T00:11:53;12.7;76.2
78731;SHT31;68055;51.978;5.658;2023-04-01T00:14:23;12.7;76.3
78731;SHT31;68055;51.978;5.658;2023-04-01T00:16:53;12.7;76.1
78731;SHT31;68055;51.978;5.658;2023-04-01T00:19:24;12.7;76.4
78731;SHT31;68055;51.978;5.658;2023-04-01T00:21:54;12.7;76.5
78731;SHT31;68055;51.978;5.658;2023-04-01T00:24:24;12.8;76.3
78731;SHT31;68055;51.978;5.658;2023-04-01T00:26:54;12.8;76.4
78731;SHT31;68055;51.978;5.658;2023-04-01T00:29:25;12.8;76.1
78731;SHT31;68055;51.978;5.658;2023-04-01T00:31:57;12.8;76.2
78731;SHT31;68055;51.978;5.658;2023-04-01T00:34:27;12.8;76.3
78731;SHT31;68055;51.978;5.658;2023-04-01T00:36:57;12.8;76.2
78731;SHT31;68055;51.978;5.658;2023-04-01T00:39:28;12.8;76.5
78731;SHT31;68055;51.978;5.658;2023-04-01T00:41:59;12.8;76.3
78731;SHT31;68055;51.978;5.658;2023-04-01T00:44:30;12.8;76.0
78731;SHT31;68055;51.978;5.658;2023-04-01T00:47:01;12.8;76.2
78731;SHT31;68055;51.978;5.658;2023-04-01T00:49:36;12.8;76.2
78731;SHT31;68055;51.978;5.658;2023-04-01T00:52:08;12.8;76.3
78731;SHT31;68055;51.978;5.658;2023-04-01T00:54:42;12.8;76.2
78731;SHT31;68055;51.978;5.658;2023-04-01T00:57:19;12.8;76.4
78731;SHT31;68055;51.978;5.658;2023-04-01T00:59:53;12.8;76.4
78731;SHT31;68055;51.978;5.658;2023-04-01T01:02:26;12.8;76.6
78731;SHT31;68055;51.978;5.658;2023-04-01T01:04:55;12.8;76.5
78731;SHT31;68055;51.978;5.658;2023-04-01T01:07:35;12.8;76.5
78731;SHT31;68055;51.978;5.658;2023-04-01T01:10:13;12.9;76.3
78731;SHT31;68055;51.978;5.658;2023-04-01T01:12:53;12.9;76.3
78731;SHT31;68055;51.978;5.658;2023-04-01T01:15:35;12.9;76.2
78731;SHT31;68055;51.978;5.658;2023-04-01T01:18:16;12.9;76.1
78731;SHT31;68055;51.978;5.658;2023-04-01T01:21:09;12.9;76.1
78731;SHT31;68055;51.978;5.658;2023-04-01T01:26:07;12.9;76.0
78731;SHT31;68055;51.978;5.658;2023-04-01T01:28:51;12.9;76.1
78731;SHT31;68055;51.978;5.658;2023-04-01T01:31:28;12.9;75.9
78731;SHT31;68055;51.978;5.658;2023-04-01T01:34:12;12.9;75.6
78731;SHT31;68055;51.978;5.658;2023-04-01T01:36:47;12.9;75.4
78731;SHT31;68055;51.978;5.658;2023-04-01T01:39:19;12.9;75.3
78731;SHT31;68055;51.978;5.658;2023-04-01T01:41:56;12.9;75.1
78731;SHT31;68055;51.978;5.658;2023-04-01T01:44:29;12.9;75.2
78731;SHT31;68055;51.978;5.658;2023-04-01T01:47:00;12.9;75.1
78731;SHT31;68055;51.978;5.658;2023-04-01T01:49:32;12.8;74.9
78731;SHT31;68055;51.978;5.658;2023-04-01T01:52:03;12.8;74.8
78731;SHT31;68055;51.978;5.658;2023-04-01T01:54:33;12.8;74.8
78731;SHT31;68055;51.978;5.658;2023-04-01T01:57:07;12.8;74.9
78731;SHT31;68055;51.978;5.658;2023-04-01T01:59:40;12.8;74.7
78731;SHT31;68055;51.978;5.658;2023-04-01T02:02:13;12.8;74.7
78731;SHT31;68055;51.978;5.658;2023-04-01T02:04:46;12.8;74.8
78731;SHT31;68055;51.978;5.658;2023-04-01T02:07:19;12.8;74.9
78731;SHT31;68055;51.978;5.658;2023-04-01T02:09:50;12.7;74.9
78731;SHT31;68055;51.978;5.658;2023-04-01T02:12:22;12.7;74.9
78731;SHT31;68055;51.978;5.658;2023-04-01T02:14:58;12.7;75.1
78731;SHT31;68055;51.978;5.658;2023-04-01T02:17:34;12.7;75.2
78731;SHT31;68055;51.978;5.658;2023-04-01T02:20:09;12.7;75.3
78731;SHT31;68055;51.978;5.658;2023-04-01T02:22:44;12.7;75.4
78731;SHT31;68055;51.978;5.658;2023-04-01T02:25:19;12.7;75.3
78731;SHT31;68055;51.978;5.658;2023-04-01T02:27:50;12.7;75.3
78731;SHT31;68055;51.978;5.658;2023-04-01T02:30:20;12.7;75.5
78731;SHT31;68055;51.978;5.658;2023-04-01T02:32:51;12.7;75.5
78731;SHT31;68055;51.978;5.658;2023-04-01T02:35:20;12.7;75.3
78731;SHT31;68055;51.978;5.658;2023-04-01T02:37:52;12.7;75.4
78731;SHT31;68055;51.978;5.658;2023-04-01T02:40:25;12.6;75.3
78731;SHT31;68055;51.978;5.658;2023-04-01T02:42:54;12.6;75.6
78731;SHT31;68055;51.978;5.658;2023-04-01T02:45:26;12.6;75.6
78731;SHT31;68055;51.978;5.658;2023-04-01T02:47:55;12.6;75.4
78731;SHT31;68055;51.978;5.658;2023-04-01T02:50:25;12.6;75.6
78731;SHT31;68055;51.978;5.658;2023-04-01T02:52:54;12.6;75.6
78731;SHT31;68055;51.978;5.658;2023-04-01T02:55:24;12.6;75.8
78731;SHT31;68055;51.978;5.658;2023-04-01T02:57:54;12.6;75.7
78731;SHT31;68055;51.978;5.658;2023-04-01T03:00:23;12.6;75.3
78731;SHT31;68055;51.978;5.658;2023-04-01T03:02:53;12.6;75.1
78731;SHT31;68055;51.978;5.658;2023-04-01T03:05:23;12.6;75.1
78731;SHT31;68055;51.978;5.658;2023-04-01T03:07:53;12.6;75.3
78731;SHT31;68055;51.978;5.658;2023-04-01T03:10:25;12.6;75.1
78731;SHT31;68055;51.978;5.658;2023-04-01T03:12:54;12.6;75.4
78731;SHT31;68055;51.978;5.658;2023-04-01T03:15:26;12.6;75.4
78731;SHT31;68055;51.978;5.658;2023-04-01T03:17:57;12.6;75.4
78731;SHT31;68055;51.978;5.658;2023-04-01T03:20:27;12.6;75.3
78731;SHT31;68055;51.978;5.658;2023-04-01T03:22:57;12.6;75.3
78731;SHT31;68055;51.978;5.658;2023-04-01T03:25:27;12.5;75.2
78731;SHT31;68055;51.978;5.658;2023-04-01T03:27:58;12.5;75.3
78731;SHT31;68055;51.978;5.658;2023-04-01T03:30:29;12.5;75.3
78731;SHT31;68055;51.978;5.658;2023-04-01T03:32:59;12.5;75.4
78731;SHT31;68055;51.978;5.658;2023-04-01T03:35:31;12.5;75.2
78731;SHT31;68055;51.978;5.658;2023-04-01T03:38:03;12.5;75.2
78731;SHT31;68055;51.978;5.658;2023-04-01T03:40:32;12.5;75.4
78731;SHT31;68055;51.978;5.658;2023-04-01T03:43:04;12.5;75.3
78731;SHT31;68055;51.978;5.658;2023-04-01T03:45:35;12.5;75.1
78731;SHT31;68055;51.978;5.658;2023-04-01T03:48:05;12.5;75.2
78731;SHT31;68055;51.978;5.658;2023-04-01T03:50:36;12.5;75.2
78731;SHT31;68055;51.978;5.658;2023-04-01T03:53:06;12.5;75.1
78731;SHT31;68055;51.978;5.658;2023-04-01T03:55:37;12.5;75.1
78731;SHT31;68055;51.978;5.658;2023-04-01T03:58:07;12.5;75.1
78731;SHT31;68055;51.978;5.658;2023-04-01T04:00:39;12.5;75.2
78731;SHT31;68055;51.978;5.658;2023-04-01T04:03:09;12.5;75.3
78731;SHT31;68055;51.978;5.658;2023-04-01T04:05:48;12.5;75.3
78731;SHT31;68055;51.978;5.658;2023-04-01T04:08:19;12.5;75.1
78731;SHT31;68055;51.978;5.658;2023-04-01T04:10:54;12.5;75.1
78731;SHT31;68055;51.978;5.658;2023-04-01T04:13:25;12.5;75.4
78731;SHT31;68055;51.978;5.658;2023-04-01T04:15:55;12.5;75.4
78731;SHT31;68055;51.978;5.658;2023-04-01T04:18:25;12.5;75.6
78731;SHT31;68055;51.978;5.658;2023-04-01T04:20:56;12.5;75.6
78731;SHT31;68055;51.978;5.658;2023-04-01T04:23:26;12.5;75.6
78731;SHT31;68055;51.978;5.658;2023-04-01T04:26:00;12.5;75.7
78731;SHT31;68055;51.978;5.658;2023-04-01T04:28:31;12.5;75.8
78731;SHT31;68055;51.978;5.658;2023-04-01T04:31:01;12.5;75.7
78731;SHT31;68055;51.978;5.658;2023-04-01T04:33:35;12.5;75.8
78731;SHT31;68055;51.978;5.658;2023-04-01T04:36:07;12.5;75.8
78731;SHT31;68055;51.978;5.658;2023-04-01T04:38:37;12.5;76.0
78731;SHT31;68055;51.978;5.658;2023-04-01T04:41:10;12.5;76.0
78731;SHT31;68055;51.978;5.658;2023-04-01T04:43:41;12.5;75.9
78731;SHT31;68055;51.978;5.658;2023-04-01T04:46:10;12.5;75.8
78731;SHT31;68055;51.978;5.658;2023-04-01T04:48:40;12.5;75.8
78731;SHT31;68055;51.978;5.658;2023-04-01T04:51:14;12.5;75.8
78731;SHT31;68055;51.978;5.658;2023-04-01T04:53:46;12.5;75.8
78731;SHT31;68055;51.978;5.658;2023-04-01T04:56:20;12.5;75.9
78731;SHT31;68055;51.978;5.658;2023-04-01T04:58:54;12.5;75.9
78731;SHT31;68055;51.978;5.658;2023-04-01T05:01:24;12.5;75.9
78731;SHT31;68055;51.978;5.658;2023-04-01T05:03:54;12.6;76.0
78731;SHT31;68055;51.978;5.658;2023-04-01T05:06:25;12.6;75.9
78731;SHT31;68055;51.978;5.658;2023-04-01T05:08:57;12.6;75.8
78731;SHT31;68055;51.978;5.658;2023-04-01T05:11:26;12.6;76.0
78731;SHT31;68055;51.978;5.658;2023-04-01T05:13:56;12.6;76.1
78731;SHT31;68055;51.978;5.658;2023-04-01T05:16:25;12.6;76.0
78731;SHT31;68055;51.978;5.658;2023-04-01T05:18:55;12.6;75.9
78731;SHT31;68055;51.978;5.658;2023-04-01T05:21:25;12.7;76.0
78731;SHT31;68055;51.978;5.658;2023-04-01T05:23:54;12.7;75.9
78731;SHT31;68055;51.978;5.658;2023-04-01T05:26:24;12.7;75.9
78731;SHT31;68055;51.978;5.658;2023-04-01T05:28:53;12.7;75.9
78731;SHT31;68055;51.978;5.658;2023-04-01T05:31:23;12.7;75.9
78731;SHT31;68055;51.978;5.658;2023-04-01T05:33:53;12.7;75.7
78731;SHT31;68055;51.978;5.658;2023-04-01T05:36:23;12.7;75.8
78731;SHT31;68055;51.978;5.658;2023-04-01T05:38:54;12.8;75.5
78731;SHT31;68055;51.978;5.658;2023-04-01T05:41:24;12.8;75.6
78731;SHT31;68055;51.978;5.658;2023-04-01T05:43:56;12.8;75.7
78731;SHT31;68055;51.978;5.658;2023-04-01T05:46:28;12.8;75.9
78731;SHT31;68055;51.978;5.658;2023-04-01T05:48:57;12.8;75.8
78731;SHT31;68055;51.978;5.658;2023-04-01T05:51:27;12.8;75.9
78731;SHT31;68055;51.978;5.658;2023-04-01T05:53:57;12.8;75.9
78731;SHT31;68055;51.978;5.658;2023-04-01T05:56:26;12.9;75.8
78731;SHT31;68055;51.978;5.658;2023-04-01T05:58:56;12.9;75.7
78731;SHT31;68055;51.978;5.658;2023-04-01T06:01:26;12.9;75.7
78731;SHT31;68055;51.978;5.658;2023-04-01T06:03:56;13.0;75.7
78731;SHT31;68055;51.978;5.658;2023-04-01T06:06:27;13.0;75.5
78731;SHT31;68055;51.978;5.658;2023-04-01T06:09:07;13.0;75.3
78731;SHT31;68055;51.978;5.658;2023-04-01T06:11:48;13.1;75.1
78731;SHT31;68055;51.978;5.658;2023-04-01T06:14:31;13.1;75.1
78731;SHT31;68055;51.978;5.658;2023-04-01T06:17:16;13.1;74.9
78731;SHT31;68055;51.978;5.658;2023-04-01T06:19:57;13.1;75.0
78731;SHT31;68055;51.978;5.658;2023-04-01T06:23:07;13.1;74.9
78731;SHT31;68055;51.978;5.658;2023-04-01T06:25:48;13.1;74.9
78731;SHT31;68055;51.978;5.658;2023-04-01T06:28:52;13.2;74.9
78731;SHT31;68055;51.978;5.658;2023-04-01T06:31:42;13.2;74.9
78731;SHT31;68055;51.978;5.658;2023-04-01T06:35:24;13.2;75.1
78731;SHT31;68055;51.978;5.658;2023-04-01T06:38:18;13.2;75.1
78731;SHT31;68055;51.978;5.658;2023-04-01T06:41:10;13.2;75.3
78731;SHT31;68055;51.978;5.658;2023-04-01T06:43:56;13.2;75.3
78731;SHT31;68055;51.978;5.658;2023-04-01T06:46:39;13.2;75.0
78731;SHT31;68055;51.978;5.658;2023-04-01T06:49:32;13.3;75.0
78731;SHT31;68055;51.978;5.658;2023-04-01T06:52:13;13.3;74.8
78731;SHT31;68055;51.978;5.658;2023-04-01T06:54:51;13.3;74.9
78731;SHT31;68055;51.978;5.658;2023-04-01T06:57:32;13.3;74.9
78731;SHT31;68055;51.978;5.658;2023-04-01T07:00:13;13.3;74.9
78731;SHT31;68055;51.978;5.658;2023-04-01T07:02:49;13.3;74.9
78731;SHT31;68055;51.978;5.658;2023-04-01T07:05:23;13.3;74.7
78731;SHT31;68055;51.978;5.658;2023-04-01T07:07:59;13.3;74.7
78731;SHT31;68055;51.978;5.658;2023-04-01T07:10:35;13.3;74.4
78731;SHT31;68055;51.978;5.658;2023-04-01T07:13:15;13.3;74.7
78731;SHT31;68055;51.978;5.658;2023-04-01T07:15:55;13.3;74.7
78731;SHT31;68055;51.978;5.658;2023-04-01T07:18:30;13.3;74.8
78731;SHT31;68055;51.978;5.658;2023-04-01T07:21:02;13.3;74.7
78731;SHT31;68055;51.978;5.658;2023-04-01T07:23:41;13.3;74.9
78731;SHT31;68055;51.978;5.658;2023-04-01T07:26:17;13.3;74.9
78731;SHT31;68055;51.978;5.658;2023-04-01T07:28:48;13.3;74.9
78731;SHT31;68055;51.978;5.658;2023-04-01T07:31:34;13.3;75.1
78731;SHT31;68055;51.978;5.658;2023-04-01T07:34:15;13.3;75.3
78731;SHT31;68055;51.978;5.658;2023-04-01T07:36:57;13.3;75.1
78731;SHT31;68055;51.978;5.658;2023-04-01T07:39:40;13.3;75.1
78731;SHT31;68055;51.978;5.658;2023-04-01T07:42:19;13.3;75.0
78731;SHT31;68055;51.978;5.658;2023-04-01T07:45:01;13.3;74.9
78731;SHT31;68055;51.978;5.658;2023-04-01T07:47:41;13.3;75.4
78731;SHT31;68055;51.978;5.658;2023-04-01T07:50:22;13.3;75.3
78731;SHT31;68055;51.978;5.658;2023-04-01T07:53:06;13.3;75.5
78731;SHT31;68055;51.978;5.658;2023-04-01T07:55:43;13.3;75.3
78731;SHT31;68055;51.978;5.658;2023-04-01T07:58:22;13.3;75.3
78731;SHT31;68055;51.978;5.658;2023-04-01T08:01:02;13.3;75.1
78731;SHT31;68055;51.978;5.658;2023-04-01T08:03:42;13.3;75.1
78731;SHT31;68055;51.978;5.658;2023-04-01T08:06:20;13.3;75.1
78731;SHT31;68055;51.978;5.658;2023-04-01T08:09:04;13.3;75.1
78731;SHT31;68055;51.978;5.658;2023-04-01T08:11:53;13.3;75.4
78731;SHT31;68055;51.978;5.658;2023-04-01T08:14:32;13.3;75.4
78731;SHT31;68055;51.978;5.658;2023-04-01T08:17:12;13.3;75.7
78731;SHT31;68055;51.978;5.658;2023-04-01T08:20:07;13.3;75.8
78731;SHT31;68055;51.978;5.658;2023-04-01T08:22:42;13.3;76.1
78731;SHT31;68055;51.978;5.658;2023-04-01T08:25:17;13.3;76.2
78731;SHT31;68055;51.978;5.658;2023-04-01T08:27:53;13.4;76.2
78731;SHT31;68055;51.978;5.658;2023-04-01T08:30:35;13.4;75.8
78731;SHT31;68055;51.978;5.658;2023-04-01T08:33:13;13.4;75.6
78731;SHT31;68055;51.978;5.658;2023-04-01T08:35:49;13.4;75.7
78731;SHT31;68055;51.978;5.658;2023-04-01T08:38:26;13.4;75.9
78731;SHT31;68055;51.978;5.658;2023-04-01T08:41:11;13.4;76.1
78731;SHT31;68055;51.978;5.658;2023-04-01T08:43:54;13.4;76.2
78731;SHT31;68055;51.978;5.658;2023-04-01T08:46:37;13.4;76.0
78731;SHT31;68055;51.978;5.658;2023-04-01T08:49:29;13.5;76.5
78731;SHT31;68055;51.978;5.658;2023-04-01T08:52:21;13.5;76.1
78731;SHT31;68055;51.978;5.658;2023-04-01T08:55:04;13.5;76.0
78731;SHT31;68055;51.978;5.658;2023-04-01T08:57:49;13.5;75.8
78731;SHT31;68055;51.978;5.658;2023-04-01T09:00:32;13.5;75.7
78731;SHT31;68055;51.978;5.658;2023-04-01T09:03:47;13.5;76.0
78731;SHT31;68055;51.978;5.658;2023-04-01T09:06:32;13.6;75.7
78731;SHT31;68055;51.978;5.658;2023-04-01T09:09:39;13.6;75.7
78731;SHT31;68055;51.978;5.658;2023-04-01T09:12:26;13.6;75.3
78731;SHT31;68055;51.978;5.658;2023-04-01T09:15:58;13.6;75.1
78731;SHT31;68055;51.978;5.658;2023-04-01T09:23:43;13.6;76.3
78731;SHT31;68055;51.978;5.658;2023-04-01T09:26:36;13.6;76.2
78731;SHT31;68055;51.978;5.658;2023-04-01T09:29:23;13.6;76.6
78731;SHT31;68055;51.978;5.658;2023-04-01T09:32:18;13.7;76.4
78731;SHT31;68055;51.978;5.658;2023-04-01T09:35:04;13.7;76.6
78731;SHT31;68055;51.978;5.658;2023-04-01T09:37:51;13.8;75.9
78731;SHT31;68055;51.978;5.658;2023-04-01T09:40:33;13.8;75.4
78731;SHT31;68055;51.978;5.658;2023-04-01T09:43:20;13.8;75.0
78731;SHT31;68055;51.978;5.658;2023-04-01T09:46:01;13.8;75.5
78731;SHT31;68055;51.978;5.658;2023-04-01T09:49:30;13.8;75.3
78731;SHT31;68055;51.978;5.658;2023-04-01T09:52:20;13.9;76.0
78731;SHT31;68055;51.978;5.658;2023-04-01T09:55:03;13.9;75.6
78731;SHT31;68055;51.978;5.658;2023-04-01T09:58:11;13.9;75.8
78731;SHT31;68055;51.978;5.658;2023-04-01T10:01:14;14.0;76.8
78731;SHT31;68055;51.978;5.658;2023-04-01T10:04:54;14.1;76.1
78731;SHT31;68055;51.978;5.658;2023-04-01T10:16:26;14.4;76.7
78731;SHT31;68055;51.978;5.658;2023-04-01T10:20:42;14.6;75.8
78731;SHT31;68055;51.978;5.658;2023-04-01T10:23:32;14.8;74.4
78731;SHT31;68055;51.978;5.658;2023-04-01T10:36:21;15.3;74.1
78731;SHT31;68055;51.978;5.658;2023-04-01T10:39:19;15.4;75.1
78731;SHT31;68055;51.978;5.658;2023-04-01T10:42:28;15.6;72.7
78731;SHT31;68055;51.978;5.658;2023-04-01T10:51:06;15.8;72.8
78731;SHT31;68055;51.978;5.658;2023-04-01T10:53:46;15.9;70.5
78731;SHT31;68055;51.978;5.658;2023-04-01T10:57:12;16.0;69.6
78731;SHT31;68055;51.978;5.658;2023-04-01T11:00:20;16.1;70.2
78731;SHT31;68055;51.978;5.658;2023-04-01T11:05:12;16.2;68.9
78731;SHT31;68055;51.978;5.658;2023-04-01T11:09:46;16.3;67.9
78731;SHT31;68055;51.978;5.658;2023-04-01T11:12:43;16.3;68.1
78731;SHT31;68055;51.978;5.658;2023-04-01T11:15:31;16.3;68.2
78731;SHT31;68055;51.978;5.658;2023-04-01T11:19:51;16.2;68.0
78731;SHT31;68055;51.978;5.658;2023-04-01T11:22:50;16.1;67.1
78731;SHT31;68055;51.978;5.658;2023-04-01T11:25:45;16.1;66.8
78731;SHT31;68055;51.978;5.658;2023-04-01T11:28:47;16.0;68.5
78731;SHT31;68055;51.978;5.658;2023-04-01T11:31:41;16.0;68.2
78731;SHT31;68055;51.978;5.658;2023-04-01T11:34:20;15.9;67.9
78731;SHT31;68055;51.978;5.658;2023-04-01T11:37:03;15.9;68.8
78731;SHT31;68055;51.978;5.658;2023-04-01T11:39:46;15.9;68.9
78731;SHT31;68055;51.978;5.658;2023-04-01T11:42:30;15.9;68.4
78731;SHT31;68055;51.978;5.658;2023-04-01T11:45:22;15.9;68.0
78731;SHT31;68055;51.978;5.658;2023-04-01T11:48:07;15.8;68.3
78731;SHT31;68055;51.978;5.658;2023-04-01T11:50:46;15.8;68.5
78731;SHT31;68055;51.978;5.658;2023-04-01T11:53:34;15.8;68.5
78731;SHT31;68055;51.978;5.658;2023-04-01T11:56:20;15.8;67.5
78731;SHT31;68055;51.978;5.658;2023-04-01T11:59:21;15.7;68.2
78731;SHT31;68055;51.978;5.658;2023-04-01T12:02:01;15.7;68.8
78731;SHT31;68055;51.978;5.658;2023-04-01T12:04:57;15.6;69.2
78731;SHT31;68055;51.978;5.658;2023-04-01T12:07:44;15.6;70.3
78731;SHT31;68055;51.978;5.658;2023-04-01T12:10:20;15.5;69.4
78731;SHT31;68055;51.978;5.658;2023-04-01T12:13:02;15.5;70.5
78731;SHT31;68055;51.978;5.658;2023-04-01T12:15:48;15.5;71.2
78731;SHT31;68055;51.978;5.658;2023-04-01T12:18:26;15.4;69.4
78731;SHT31;68055;51.978;5.658;2023-04-01T12:21:11;15.4;70.8
78731;SHT31;68055;51.978;5.658;2023-04-01T12:24:09;15.4;70.4
78731;SHT31;68055;51.978;5.658;2023-04-01T12:26:51;15.4;70.9
78731;SHT31;68055;51.978;5.658;2023-04-01T12:30:35;15.4;70.3
78731;SHT31;68055;51.978;5.658;2023-04-01T12:33:24;15.3;69.0
78731;SHT31;68055;51.978;5.658;2023-04-01T12:36:03;15.3;69.1
78731;SHT31;68055;51.978;5.658;2023-04-01T12:38:48;15.3;69.6
78731;SHT31;68055;51.978;5.658;2023-04-01T12:41:29;15.2;69.7
78731;SHT31;68055;51.978;5.658;2023-04-01T12:44:55;15.2;70.3
78731;SHT31;68055;51.978;5.658;2023-04-01T12:51:46;15.1;71.4
78731;SHT31;68055;51.978;5.658;2023-04-01T12:54:48;15.1;72.0
78731;SHT31;68055;51.978;5.658;2023-04-01T13:01:34;15.1;72.2
78731;SHT31;68055;51.978;5.658;2023-04-01T13:06:27;15.1;71.7
78731;SHT31;68055;51.978;5.658;2023-04-01T13:09:11;15.2;72.9
78731;SHT31;68055;51.978;5.658;2023-04-01T13:12:39;15.2;72.1
78731;SHT31;68055;51.978;5.658;2023-04-01T13:15:21;15.3;72.6
78731;SHT31;68055;51.978;5.658;2023-04-01T13:18:04;15.3;71.7
78731;SHT31;68055;51.978;5.658;2023-04-01T13:20:44;15.3;72.3
78731;SHT31;68055;51.978;5.658;2023-04-01T13:23:33;15.4;71.5
78731;SHT31;68055;51.978;5.658;2023-04-01T13:26:17;15.4;70.9
78731;SHT31;68055;51.978;5.658;2023-04-01T13:28:57;15.4;72.5
78731;SHT31;68055;51.978;5.658;2023-04-01T13:31:37;15.4;71.9
78731;SHT31;68055;51.978;5.658;2023-04-01T13:34:20;15.3;71.4
78731;SHT31;68055;51.978;5.658;2023-04-01T13:37:09;15.3;70.5
78731;SHT31;68055;51.978;5.658;2023-04-01T13:39:57;15.2;70.6
78731;SHT31;68055;51.978;5.658;2023-04-01T13:42:37;15.2;70.6
78731;SHT31;68055;51.978;5.658;2023-04-01T13:45:16;15.1;71.5
78731;SHT31;68055;51.978;5.658;2023-04-01T13:48:35;15.0;71.7
78731;SHT31;68055;51.978;5.658;2023-04-01T13:51:22;15.0;71.6
78731;SHT31;68055;51.978;5.658;2023-04-01T13:54:09;14.9;73.0
78731;SHT31;68055;51.978;5.658;2023-04-01T13:56:54;14.9;72.8
78731;SHT31;68055;51.978;5.658;2023-04-01T13:59:43;14.9;74.1
78731;SHT31;68055;51.978;5.658;2023-04-01T14:02:33;14.9;73.3
78731;SHT31;68055;51.978;5.658;2023-04-01T14:05:27;14.8;74.7
78731;SHT31;68055;51.978;5.658;2023-04-01T14:08:11;14.8;74.1
78731;SHT31;68055;51.978;5.658;2023-04-01T14:10:50;14.9;72.7
78731;SHT31;68055;51.978;5.658;2023-04-01T14:13:32;14.9;73.1
78731;SHT31;68055;51.978;5.658;2023-04-01T14:16:20;14.8;73.5
78731;SHT31;68055;51.978;5.658;2023-04-01T14:19:11;14.8;73.5
78731;SHT31;68055;51.978;5.658;2023-04-01T14:21:53;14.8;73.8
78731;SHT31;68055;51.978;5.658;2023-04-01T14:26:55;14.8;73.7
78731;SHT31;68055;51.978;5.658;2023-04-01T14:29:36;14.8;74.2
78731;SHT31;68055;51.978;5.658;2023-04-01T14:32:22;14.8;74.3
78731;SHT31;68055;51.978;5.658;2023-04-01T14:35:03;14.8;74.1
78731;SHT31;68055;51.978;5.658;2023-04-01T14:37:55;14.8;73.8
78731;SHT31;68055;51.978;5.658;2023-04-01T14:40:45;14.8;74.0
78731;SHT31;68055;51.978;5.658;2023-04-01T14:43:33;14.8;74.2
78731;SHT31;68055;51.978;5.658;2023-04-01T14:46:39;14.8;73.8
78731;SHT31;68055;51.978;5.658;2023-04-01T14:49:22;14.8;73.3
78731;SHT31;68055;51.978;5.658;2023-04-01T14:51:54;14.8;73.0
78731;SHT31;68055;51.978;5.658;2023-04-01T14:54:32;14.7;73.9
78731;SHT31;68055;51.978;5.658;2023-04-01T14:57:11;14.7;74.5
78731;SHT31;68055;51.978;5.658;2023-04-01T14:59:47;14.7;74.2
78731;SHT31;68055;51.978;5.658;2023-04-01T15:02:46;14.7;74.5
78731;SHT31;68055;51.978;5.658;2023-04-01T15:05:29;14.7;74.3
78731;SHT31;68055;51.978;5.658;2023-04-01T15:08:10;14.7;74.5
78731;SHT31;68055;51.978;5.658;2023-04-01T15:11:35;14.7;74.1
78731;SHT31;68055;51.978;5.658;2023-04-01T15:14:34;14.7;73.8
78731;SHT31;68055;51.978;5.658;2023-04-01T15:17:36;14.7;74.0
78731;SHT31;68055;51.978;5.658;2023-04-01T15:23:37;14.6;74.5
78731;SHT31;68055;51.978;5.658;2023-04-01T15:26:24;14.6;73.7
78731;SHT31;68055;51.978;5.658;2023-04-01T15:29:16;14.6;74.7
78731;SHT31;68055;51.978;5.658;2023-04-01T15:31:51;14.5;74.1
78731;SHT31;68055;51.978;5.658;2023-04-01T15:34:32;14.5;75.1
78731;SHT31;68055;51.978;5.658;2023-04-01T15:37:13;14.5;73.5
78731;SHT31;68055;51.978;5.658;2023-04-01T15:39:55;14.5;73.1
78731;SHT31;68055;51.978;5.658;2023-04-01T15:42:49;14.4;73.0
78731;SHT31;68055;51.978;5.658;2023-04-01T15:45:32;14.3;73.3
78731;SHT31;68055;51.978;5.658;2023-04-01T15:48:10;14.3;74.7
78731;SHT31;68055;51.978;5.658;2023-04-01T15:50:52;14.3;74.4
78731;SHT31;68055;51.978;5.658;2023-04-01T15:53:46;14.2;74.5
78731;SHT31;68055;51.978;5.658;2023-04-01T15:56:48;14.2;74.2
78731;SHT31;68055;51.978;5.658;2023-04-01T15:59:42;14.2;73.6
78731;SHT31;68055;51.978;5.658;2023-04-01T16:02:24;14.1;72.9
78731;SHT31;68055;51.978;5.658;2023-04-01T16:05:02;14.1;73.2
78731;SHT31;68055;51.978;5.658;2023-04-01T16:08:44;14.1;73.6
78731;SHT31;68055;51.978;5.658;2023-04-01T16:11:25;14.0;74.3
78731;SHT31;68055;51.978;5.658;2023-04-01T16:14:11;14.0;74.3
78731;SHT31;68055;51.978;5.658;2023-04-01T16:16:57;13.9;74.6
78731;SHT31;68055;51.978;5.658;2023-04-01T16:19:36;13.9;73.5
78731;SHT31;68055;51.978;5.658;2023-04-01T16:22:13;13.9;73.2
78731;SHT31;68055;51.978;5.658;2023-04-01T16:24:48;13.8;73.4
78731;SHT31;68055;51.978;5.658;2023-04-01T16:27:27;13.8;73.3
78731;SHT31;68055;51.978;5.658;2023-04-01T16:30:03;13.7;73.3
78731;SHT31;68055;51.978;5.658;2023-04-01T16:32:45;13.7;73.2
78731;SHT31;68055;51.978;5.658;2023-04-01T16:35:39;13.6;74.2
78731;SHT31;68055;51.978;5.658;2023-04-01T16:38:18;13.6;74.3
78731;SHT31;68055;51.978;5.658;2023-04-01T16:41:10;13.6;74.2
78731;SHT31;68055;51.978;5.658;2023-04-01T16:43:45;13.6;74.5
78731;SHT31;68055;51.978;5.658;2023-04-01T16:46:32;13.5;74.8
78731;SHT31;68055;51.978;5.658;2023-04-01T16:49:22;13.5;74.4
78731;SHT31;68055;51.978;5.658;2023-04-01T16:52:13;13.5;74.6
78731;SHT31;68055;51.978;5.658;2023-04-01T16:54:45;13.5;75.1
78731;SHT31;68055;51.978;5.658;2023-04-01T16:57:24;13.5;74.8
78731;SHT31;68055;51.978;5.658;2023-04-01T17:00:01;13.5;74.4
78731;SHT31;68055;51.978;5.658;2023-04-01T17:02:38;13.5;74.1
78731;SHT31;68055;51.978;5.658;2023-04-01T17:05:12;13.5;73.7
78731;SHT31;68055;51.978;5.658;2023-04-01T17:07:47;13.5;73.5
78731;SHT31;68055;51.978;5.658;2023-04-01T17:10:47;13.4;74.1
78731;SHT31;68055;51.978;5.658;2023-04-01T17:13:29;13.4;73.9
78731;SHT31;68055;51.978;5.658;2023-04-01T17:17:11;13.4;74.2
78731;SHT31;68055;51.978;5.658;2023-04-01T17:20:00;13.4;73.3
78731;SHT31;68055;51.978;5.658;2023-04-01T17:22:42;13.3;73.0
78731;SHT31;68055;51.978;5.658;2023-04-01T17:25:28;13.3;73.1
78731;SHT31;68055;51.978;5.658;2023-04-01T17:28:07;13.3;73.3
78731;SHT31;68055;51.978;5.658;2023-04-01T17:30:48;13.2;72.7
78731;SHT31;68055;51.978;5.658;2023-04-01T17:33:42;13.2;73.5
78731;SHT31;68055;51.978;5.658;2023-04-01T17:36:29;13.2;72.9
78731;SHT31;68055;51.978;5.658;2023-04-01T17:39:19;13.2;72.8
78731;SHT31;68055;51.978;5.658;2023-04-01T17:41:56;13.1;73.1
78731;SHT31;68055;51.978;5.658;2023-04-01T17:44:44;13.1;73.1
78731;SHT31;68055;51.978;5.658;2023-04-01T17:48:21;13.1;73.1
78731;SHT31;68055;51.978;5.658;2023-04-01T17:51:15;13.1;72.6
78731;SHT31;68055;51.978;5.658;2023-04-01T17:53:59;13.0;72.4
78731;SHT31;68055;51.978;5.658;2023-04-01T17:56:38;13.0;72.5
78731;SHT31;68055;51.978;5.658;2023-04-01T17:59:21;13.0;72.6
78731;SHT31;68055;51.978;5.658;2023-04-01T18:02:05;13.0;72.4
78731;SHT31;68055;51.978;5.658;2023-04-01T18:04:59;13.0;73.1
78731;SHT31;68055;51.978;5.658;2023-04-01T18:08:17;12.9;72.5
78731;SHT31;68055;51.978;5.658;2023-04-01T18:11:04;12.9;72.9
78731;SHT31;68055;51.978;5.658;2023-04-01T18:14:35;12.9;72.3
78731;SHT31;68055;51.978;5.658;2023-04-01T18:17:24;12.9;71.5
78731;SHT31;68055;51.978;5.658;2023-04-01T18:20:11;12.9;71.3
78731;SHT31;68055;51.978;5.658;2023-04-01T18:22:47;12.9;71.6
78731;SHT31;68055;51.978;5.658;2023-04-01T18:25:24;12.8;71.6
78731;SHT31;68055;51.978;5.658;2023-04-01T18:29:04;12.8;71.4
78731;SHT31;68055;51.978;5.658;2023-04-01T18:31:42;12.8;71.8
78731;SHT31;68055;51.978;5.658;2023-04-01T18:34:32;12.7;71.3